Vitoria do Mearim, Brazil
Current Conditions -  °F | °C
As of 8:00 AM on Monday 22 Dec 2014 (Local Time) from SBSL Reporting Station
Broken Clouds Broken Clouds  
Wind Chill: 82°   Ceiling: 1700
Heat Index: 86°   Visibility: 6mi
Dew Point: 70°   Wind: 16mph
Humidity: 66%   Direction: 70°ENE
Pressure: 29.88"   Gusts: NA
Location:  3.46°S, 44.87°W
Report Text: SBSL 221100Z 07014KT 9999 BKN017 28/21 Q1012
Loading
Personal Weather Stations






























Interactive Weather Map New forecast layout! Learn more

10-Day Weather Forecast

Advertisements
Track Severe Weather on mobile